createdAt,value
2023-05-22T00:00:55.505Z,38.35
2023-05-22T00:01:55.548Z,38.51
2023-05-22T00:02:55.569Z,38.99
2023-05-22T00:03:55.491Z,39.80
2023-05-22T00:04:55.509Z,40.93
2023-05-22T00:05:55.466Z,39.80
2023-05-22T00:06:55.449Z,39.32
2023-05-22T00:07:55.493Z,39.64
2023-05-22T00:08:55.441Z,39.48
2023-05-22T00:09:55.439Z,41.41
2023-05-22T00:10:55.426Z,40.28
2023-05-22T00:11:55.440Z,40.93
2023-05-22T00:12:55.436Z,38.83
2023-05-22T00:13:55.405Z,39.32
2023-05-22T00:14:55.389Z,39.32
2023-05-22T00:15:55.390Z,39.32
2023-05-22T00:16:55.455Z,42.86
2023-05-22T00:17:55.384Z,38.51
2023-05-22T00:18:55.400Z,39.64
2023-05-22T00:19:55.363Z,40.77
2023-05-22T00:20:55.382Z,44.15
2023-05-22T00:21:55.401Z,40.28
2023-05-22T00:22:55.387Z,38.83
2023-05-22T00:23:55.325Z,38.83
2023-05-22T00:24:55.334Z,40.77
2023-05-22T00:25:55.368Z,39.16
2023-05-22T00:26:55.371Z,45.12
2023-05-22T00:27:55.288Z,42.38
2023-05-22T00:28:55.283Z,41.57
2023-05-22T00:29:55.280Z,39.80
2023-05-22T00:30:55.291Z,39.16
2023-05-22T00:31:55.283Z,39.96
2023-05-22T00:32:56.276Z,39.16
2023-05-22T00:33:55.290Z,38.99
2023-05-22T00:34:55.264Z,39.32
2023-05-22T00:35:55.248Z,40.44
2023-05-22T00:36:55.252Z,39.96
2023-05-22T00:37:55.228Z,38.99
2023-05-22T00:38:55.219Z,40.12
2023-05-22T00:39:55.210Z,38.67
2023-05-22T00:40:55.195Z,38.83
2023-05-22T00:41:55.216Z,38.67
2023-05-22T00:42:55.217Z,39.32
2023-05-22T00:43:55.207Z,39.96
2023-05-22T00:44:55.165Z,39.64
2023-05-22T00:45:55.176Z,40.28
2023-05-22T00:46:55.240Z,38.83
2023-05-22T00:47:55.178Z,39.96
2023-05-22T00:48:55.143Z,41.57
2023-05-22T00:49:55.167Z,42.38
2023-05-22T00:50:55.167Z,39.96
2023-05-22T00:51:55.150Z,40.44
2023-05-22T00:52:55.120Z,39.64
2023-05-22T00:53:55.112Z,40.28
2023-05-22T00:54:55.107Z,43.34
2023-05-22T00:55:55.108Z,43.99
2023-05-22T00:56:55.107Z,40.61
2023-05-22T00:57:55.075Z,38.51
2023-05-22T00:58:55.076Z,38.35
2023-05-22T00:59:55.066Z,40.28
2023-05-22T01:00:55.077Z,40.12
2023-05-22T01:01:55.068Z,39.32
2023-05-22T01:02:55.140Z,38.99
2023-05-22T01:03:55.141Z,38.83
2023-05-22T01:04:55.025Z,38.99
2023-05-22T01:05:55.096Z,43.34
2023-05-22T01:06:55.006Z,41.41
2023-05-22T01:07:55.006Z,39.48
2023-05-22T01:08:54.991Z,40.28
2023-05-22T01:09:54.986Z,41.89
2023-05-22T01:10:55.021Z,40.28
2023-05-22T01:11:54.972Z,39.80
2023-05-22T01:12:54.969Z,41.57
2023-05-22T01:13:54.960Z,40.93
2023-05-22T01:14:54.968Z,39.96
2023-05-22T01:15:54.992Z,39.96
2023-05-22T01:16:54.936Z,39.32
2023-05-22T01:17:55.046Z,40.93
2023-05-22T01:18:54.959Z,44.96
2023-05-22T01:19:54.954Z,41.89
2023-05-22T01:20:54.900Z,39.64
2023-05-22T01:21:54.900Z,39.80
2023-05-22T01:22:54.895Z,39.16
2023-05-22T01:23:54.880Z,38.19
2023-05-22T01:24:54.899Z,38.83
2023-05-22T01:25:54.866Z,39.64
2023-05-22T01:26:54.864Z,38.83
2023-05-22T01:27:54.851Z,43.99
2023-05-22T01:28:54.842Z,40.44
2023-05-22T01:29:54.857Z,38.67
2023-05-22T01:30:54.830Z,38.51
2023-05-22T01:31:54.823Z,38.83
2023-05-22T01:32:54.872Z,40.93
2023-05-22T01:33:55.143Z,39.16
2023-05-22T01:34:54.852Z,38.83
2023-05-22T01:35:54.794Z,42.06
2023-05-22T01:36:54.782Z,39.32
2023-05-22T01:37:54.787Z,38.51
2023-05-22T01:38:54.809Z,38.19
2023-05-22T01:39:54.755Z,38.83
2023-05-22T01:40:54.755Z,39.16
2023-05-22T01:41:54.744Z,39.80
2023-05-22T01:42:54.747Z,40.44
2023-05-22T01:43:54.748Z,41.57
2023-05-22T01:44:54.714Z,42.22
2023-05-22T01:45:54.761Z,39.64
2023-05-22T01:46:54.704Z,39.32
2023-05-22T01:47:54.758Z,39.16
2023-05-22T01:48:54.730Z,39.96
2023-05-22T01:49:54.696Z,45.44
2023-05-22T01:50:54.682Z,43.67
2023-05-22T01:51:54.674Z,40.77
2023-05-22T01:52:54.679Z,39.96
2023-05-22T01:53:54.668Z,39.32
2023-05-22T01:54:54.638Z,39.80
2023-05-22T01:55:54.628Z,39.80
2023-05-22T01:56:54.621Z,44.79
2023-05-22T01:57:54.641Z,39.32
2023-05-22T01:58:54.615Z,38.83
2023-05-22T01:59:54.662Z,39.64
2023-05-22T02:00:54.657Z,41.89
2023-05-22T02:01:54.587Z,40.93
2023-05-22T02:02:54.692Z,41.41
2023-05-22T02:03:54.573Z,40.28
2023-05-22T02:04:54.566Z,40.77
2023-05-22T02:05:54.557Z,43.67
2023-05-22T02:06:54.556Z,39.96
2023-05-22T02:07:54.570Z,40.44
2023-05-22T02:08:54.532Z,42.70
2023-05-22T02:09:54.523Z,40.12
2023-05-22T02:10:54.540Z,42.22
2023-05-22T02:11:54.535Z,46.89
2023-05-22T02:12:54.500Z,43.51
2023-05-22T02:13:54.501Z,41.41
2023-05-22T02:14:54.489Z,40.44
2023-05-22T02:15:54.543Z,41.25
2023-05-22T02:16:54.478Z,44.15
2023-05-22T02:17:54.504Z,43.51
2023-05-22T02:18:54.477Z,43.02
2023-05-22T02:19:54.468Z,47.05
2023-05-22T02:20:54.478Z,40.61
2023-05-22T02:21:54.451Z,45.28
2023-05-22T02:22:54.439Z,44.31
2023-05-22T02:23:54.426Z,39.96
2023-05-22T02:24:54.408Z,40.44
2023-05-22T02:25:54.437Z,45.12
2023-05-22T02:26:54.401Z,47.37
2023-05-22T02:27:54.389Z,41.57
2023-05-22T02:28:54.379Z,42.38
2023-05-22T02:29:54.407Z,44.31
2023-05-22T02:30:54.410Z,43.99
2023-05-22T02:31:54.357Z,43.02
2023-05-22T02:32:54.481Z,44.15
2023-05-22T02:33:54.339Z,47.37
2023-05-22T02:34:54.936Z,45.92
2023-05-22T02:35:55.334Z,45.60
2023-05-22T02:36:54.316Z,44.96
2023-05-22T02:37:54.316Z,47.21
2023-05-22T02:38:54.301Z,48.50
2023-05-22T02:39:54.350Z,48.34
2023-05-22T02:40:54.300Z,46.89
2023-05-22T02:41:54.286Z,46.08
2023-05-22T02:42:54.267Z,42.06
2023-05-22T02:43:54.265Z,46.25
2023-05-22T02:44:54.279Z,44.31
2023-05-22T02:45:54.250Z,43.18
2023-05-22T02:46:54.336Z,42.06
2023-05-22T02:47:54.255Z,42.06
2023-05-22T02:48:54.249Z,47.05
2023-05-22T02:49:54.242Z,46.73
2023-05-22T02:50:54.208Z,45.44
2023-05-22T02:51:54.204Z,45.60
2023-05-22T02:52:54.207Z,48.34
2023-05-22T02:53:54.206Z,44.96
2023-05-22T02:54:54.186Z,44.47
2023-05-22T02:55:54.166Z,46.08
2023-05-22T02:56:54.167Z,45.28
2023-05-22T02:57:54.154Z,45.60
2023-05-22T02:58:54.168Z,49.15
2023-05-22T02:59:54.149Z,47.86
2023-05-22T03:00:54.132Z,47.86
2023-05-22T03:01:54.152Z,47.05
2023-05-22T03:02:54.181Z,49.31
2023-05-22T03:03:54.209Z,50.43
2023-05-22T03:04:54.105Z,47.21
2023-05-22T03:05:54.083Z,51.24
2023-05-22T03:06:54.079Z,49.63
2023-05-22T03:07:54.111Z,48.98
2023-05-22T03:08:54.093Z,49.15
2023-05-22T03:09:54.057Z,49.79
2023-05-22T03:10:54.054Z,46.89
2023-05-22T03:11:54.060Z,49.15
2023-05-22T03:12:54.063Z,48.82
2023-05-22T03:13:54.025Z,50.60
2023-05-22T03:14:54.016Z,43.51
2023-05-22T03:15:54.015Z,48.02
2023-05-22T03:16:54.015Z,48.02
2023-05-22T03:17:54.050Z,46.08
2023-05-22T03:18:54.005Z,46.89
2023-05-22T03:19:53.985Z,48.98
2023-05-22T03:20:53.986Z,48.34
2023-05-22T03:21:53.969Z,53.17
2023-05-22T03:22:53.983Z,49.47
2023-05-22T03:23:53.951Z,48.02
2023-05-22T03:24:53.956Z,43.83
2023-05-22T03:25:53.933Z,44.15
2023-05-22T03:26:53.971Z,47.86
2023-05-22T03:27:53.953Z,48.18
2023-05-22T03:28:53.975Z,50.92
2023-05-22T03:29:53.909Z,49.47
2023-05-22T03:30:53.903Z,48.02
2023-05-22T03:31:53.915Z,50.92
2023-05-22T03:32:53.944Z,50.60
2023-05-22T03:33:54.390Z,49.79
2023-05-22T03:34:53.877Z,48.50
2023-05-22T03:35:53.875Z,50.27
2023-05-22T03:36:53.887Z,50.43
2023-05-22T03:37:53.875Z,52.21
2023-05-22T03:38:53.846Z,48.02
2023-05-22T03:39:53.829Z,48.82
2023-05-22T03:40:53.852Z,50.11
2023-05-22T03:41:53.860Z,47.53
2023-05-22T03:42:53.813Z,48.02
2023-05-22T03:43:53.801Z,53.50
2023-05-22T03:44:53.798Z,50.11
2023-05-22T03:45:53.849Z,50.43
2023-05-22T03:46:53.778Z,49.47
2023-05-22T03:47:53.846Z,49.79
2023-05-22T03:48:53.778Z,48.98
2023-05-22T03:49:53.752Z,51.40
2023-05-22T03:50:53.771Z,49.79
2023-05-22T03:51:53.738Z,49.15
2023-05-22T03:52:53.741Z,47.70
2023-05-22T03:53:53.732Z,52.85
2023-05-22T03:54:53.779Z,49.31
2023-05-22T03:55:53.728Z,51.08
2023-05-22T03:56:53.699Z,50.60
2023-05-22T03:57:53.684Z,49.47
2023-05-22T03:58:53.682Z,48.98
2023-05-22T03:59:53.704Z,46.41
2023-05-22T04:00:53.694Z,43.34
2023-05-22T04:01:54.657Z,46.41
2023-05-22T04:02:53.731Z,45.76
2023-05-22T04:03:53.644Z,51.72
2023-05-22T04:04:53.710Z,51.40
2023-05-22T04:05:53.641Z,48.82
2023-05-22T04:06:53.620Z,45.60
2023-05-22T04:07:53.624Z,50.11
2023-05-22T04:08:53.606Z,48.02
2023-05-22T04:09:53.628Z,51.40
2023-05-22T04:10:53.595Z,47.05
2023-05-22T04:11:53.585Z,48.18
2023-05-22T04:12:53.574Z,47.53
2023-05-22T04:13:53.610Z,48.34
2023-05-22T04:14:53.610Z,48.34
2023-05-22T04:15:53.608Z,50.27
2023-05-22T04:16:53.550Z,51.56
2023-05-22T04:17:53.607Z,50.11
2023-05-22T04:18:53.592Z,48.02
2023-05-22T04:19:53.530Z,48.82
2023-05-22T04:20:53.521Z,51.08
2023-05-22T04:21:53.512Z,48.98
2023-05-22T04:22:53.505Z,49.15
2023-05-22T04:23:53.520Z,49.47
2023-05-22T04:24:53.488Z,49.79
2023-05-22T04:25:53.487Z,50.92
2023-05-22T04:26:53.485Z,50.11
2023-05-22T04:27:53.485Z,53.33
2023-05-22T04:28:53.492Z,48.66
2023-05-22T04:29:53.454Z,48.34
2023-05-22T04:30:53.495Z,48.82
2023-05-22T04:31:53.435Z,49.63
2023-05-22T04:32:53.497Z,49.79
2023-05-22T04:33:53.452Z,50.27
2023-05-22T04:34:53.413Z,52.53
2023-05-22T04:35:53.415Z,51.88
2023-05-22T04:36:53.408Z,48.66
2023-05-22T04:37:53.419Z,51.88
2023-05-22T04:38:53.384Z,50.60
2023-05-22T04:39:53.378Z,48.82
2023-05-22T04:40:53.372Z,50.27
2023-05-22T04:41:53.362Z,50.27
2023-05-22T04:42:53.387Z,49.31
2023-05-22T04:43:53.359Z,52.37
2023-05-22T04:44:53.337Z,51.72
2023-05-22T04:45:53.343Z,46.08
2023-05-22T04:46:53.430Z,52.21
2023-05-22T04:47:53.397Z,54.14
2023-05-22T04:48:53.314Z,51.08
2023-05-22T04:49:53.314Z,51.40
2023-05-22T04:50:53.296Z,52.21
2023-05-22T04:51:53.310Z,49.15
2023-05-22T04:52:54.278Z,49.47
2023-05-22T04:53:53.278Z,48.34
2023-05-22T04:54:53.269Z,49.95
2023-05-22T04:55:53.262Z,52.21
2023-05-22T04:56:53.285Z,51.88
2023-05-22T04:57:53.245Z,49.47
2023-05-22T04:58:53.242Z,52.21
2023-05-22T04:59:53.224Z,53.17
2023-05-22T05:00:53.245Z,48.50
2023-05-22T05:01:53.229Z,48.82
2023-05-22T05:02:53.216Z,53.17
2023-05-22T05:03:53.254Z,55.11
2023-05-22T05:04:53.242Z,50.27
2023-05-22T05:05:53.455Z,51.88
2023-05-22T05:06:53.193Z,52.53
2023-05-22T05:07:53.164Z,49.63
2023-05-22T05:08:53.165Z,48.34
2023-05-22T05:09:53.152Z,49.15
2023-05-22T05:10:53.186Z,53.98
2023-05-22T05:11:53.138Z,53.01
2023-05-22T05:12:53.128Z,50.27
2023-05-22T05:13:53.123Z,51.24
2023-05-22T05:14:53.125Z,50.92
2023-05-22T05:15:53.134Z,51.56
2023-05-22T05:16:53.239Z,51.40
2023-05-22T05:17:53.194Z,49.95
2023-05-22T05:18:53.095Z,50.11
2023-05-22T05:19:53.107Z,50.92
2023-05-22T05:20:53.093Z,48.82
2023-05-22T05:21:53.057Z,49.15
2023-05-22T05:22:53.050Z,47.70
2023-05-22T05:23:53.041Z,48.66
2023-05-22T05:24:53.054Z,48.34
2023-05-22T05:25:53.023Z,46.08
2023-05-22T05:26:53.015Z,47.37
2023-05-22T05:27:53.016Z,47.86
2023-05-22T05:28:53.012Z,47.05
2023-05-22T05:29:53.020Z,50.27
2023-05-22T05:30:52.990Z,49.79
2023-05-22T05:31:53.042Z,49.31
2023-05-22T05:32:53.016Z,51.56
2023-05-22T05:33:52.989Z,48.82
2023-05-22T05:34:52.981Z,51.88
2023-05-22T05:35:52.956Z,46.89
2023-05-22T05:36:52.954Z,53.17
2023-05-22T05:37:52.936Z,48.66
2023-05-22T05:38:52.953Z,47.86
2023-05-22T05:39:52.924Z,48.82
2023-05-22T05:40:52.926Z,46.73
2023-05-22T05:41:52.907Z,48.02
2023-05-22T05:42:52.891Z,47.53
2023-05-22T05:43:52.920Z,48.02
2023-05-22T05:44:52.882Z,48.02
2023-05-22T05:45:52.893Z,47.86
2023-05-22T05:46:52.864Z,48.02
2023-05-22T05:47:52.914Z,47.05
2023-05-22T05:48:52.874Z,47.05
2023-05-22T05:49:52.850Z,47.37
2023-05-22T05:50:52.835Z,48.34
2023-05-22T05:51:52.822Z,49.31
2023-05-22T05:52:52.866Z,46.73
2023-05-22T05:53:52.831Z,45.12
2023-05-22T05:54:52.802Z,45.60
2023-05-22T05:55:52.792Z,47.53
2023-05-22T05:56:52.787Z,47.53
2023-05-22T05:57:52.806Z,48.18
2023-05-22T05:58:52.835Z,48.82
2023-05-22T05:59:52.769Z,46.73
2023-05-22T06:00:52.761Z,46.25
2023-05-22T06:01:52.778Z,47.86
2023-05-22T06:02:52.842Z,47.86
2023-05-22T06:03:52.908Z,48.82
2023-05-22T06:04:52.730Z,48.02
2023-05-22T06:05:52.767Z,55.27
2023-05-22T06:06:52.756Z,51.08
2023-05-22T06:07:52.730Z,50.76
2023-05-22T06:08:52.689Z,52.69
2023-05-22T06:09:52.702Z,45.92
2023-05-22T06:10:52.687Z,48.98
2023-05-22T06:11:52.699Z,47.21
2023-05-22T06:12:52.670Z,45.44
2023-05-22T06:13:52.652Z,47.05
2023-05-22T06:14:52.649Z,46.57
2023-05-22T06:15:52.699Z,45.60
2023-05-22T06:16:52.729Z,44.79
2023-05-22T06:17:52.732Z,46.41
2023-05-22T06:18:52.717Z,49.31
2023-05-22T06:19:52.650Z,51.72
2023-05-22T06:20:52.637Z,52.21
2023-05-22T06:21:52.613Z,50.11
2023-05-22T06:22:52.590Z,52.85
2023-05-22T06:23:52.585Z,48.02
2023-05-22T06:24:52.568Z,51.56
2023-05-22T06:25:52.596Z,49.47
2023-05-22T06:26:52.554Z,49.95
2023-05-22T06:27:52.547Z,47.53
2023-05-22T06:28:52.545Z,46.25
2023-05-22T06:29:52.565Z,47.05
2023-05-22T06:30:52.548Z,53.17
2023-05-22T06:31:52.640Z,53.33
2023-05-22T06:32:52.594Z,50.60
2023-05-22T06:33:52.569Z,53.82
2023-05-22T06:34:52.511Z,52.37
2023-05-22T06:35:52.483Z,49.95
2023-05-22T06:36:52.485Z,53.98
2023-05-22T06:37:52.468Z,48.18
2023-05-22T06:38:52.466Z,49.79
2023-05-22T06:39:52.482Z,45.60
2023-05-22T06:40:52.445Z,51.40
2023-05-22T06:41:52.438Z,47.37
2023-05-22T06:42:52.429Z,52.37
2023-05-22T06:43:52.438Z,50.60
2023-05-22T06:44:52.445Z,44.47
2023-05-22T06:45:52.439Z,51.24
2023-05-22T06:46:52.398Z,49.31
2023-05-22T06:47:52.424Z,48.50
2023-05-22T06:48:52.413Z,55.11
2023-05-22T06:49:52.413Z,53.33
2023-05-22T06:50:52.364Z,56.07
2023-05-22T06:51:52.365Z,51.24
2023-05-22T06:52:52.351Z,49.15
2023-05-22T06:53:52.365Z,43.67
2023-05-22T06:54:53.339Z,49.31
2023-05-22T06:55:52.324Z,48.02
2023-05-22T08:25:42.097Z,51.88
2023-05-22T08:26:42.094Z,46.89
2023-05-22T08:27:43.201Z,43.18
2023-05-22T08:28:43.201Z,45.60
2023-05-22T08:29:43.155Z,51.08
2023-05-22T08:30:43.145Z,49.79
2023-05-22T08:31:43.224Z,47.37
2023-05-22T08:32:43.161Z,45.28
2023-05-22T08:33:43.145Z,46.57
2023-05-22T08:34:43.117Z,46.25
2023-05-22T08:35:43.106Z,46.08
2023-05-22T08:36:43.134Z,49.63
2023-05-22T08:38:15.048Z,50.76
2023-05-22T08:38:43.108Z,55.75
2023-05-22T08:39:43.101Z,49.47
2023-05-22T08:40:46.248Z,50.27
2023-05-22T08:41:44.182Z,49.15
2023-05-22T08:42:43.159Z,46.57
2023-05-22T08:43:43.163Z,45.60
2023-05-22T08:44:43.134Z,47.53
2023-05-22T08:45:43.144Z,45.76
2023-05-22T08:46:43.193Z,48.66
2023-05-22T08:47:43.128Z,51.88
2023-05-22T08:48:43.088Z,47.53
2023-05-22T08:49:43.080Z,49.79
2023-05-22T08:50:43.078Z,50.11
2023-05-22T08:51:43.100Z,50.27
2023-05-22T08:52:43.042Z,46.73
2023-05-22T08:53:42.980Z,51.88
2023-05-22T08:54:42.966Z,50.27
2023-05-22T08:55:42.989Z,51.24
2023-05-22T08:56:55.683Z,50.11
2023-05-22T08:57:44.964Z,48.82
2023-05-22T08:58:42.942Z,49.79
2023-05-22T08:59:42.931Z,48.50
2023-05-22T09:00:43.271Z,46.73
2023-05-22T09:01:43.012Z,49.31
2023-05-22T09:02:42.925Z,49.79
2023-05-22T09:03:42.948Z,47.86
2023-05-22T09:04:42.889Z,47.37
2023-05-22T09:05:42.924Z,51.24
2023-05-22T09:06:42.899Z,49.95
2023-05-22T09:07:42.870Z,49.31
2023-05-22T09:08:42.893Z,53.33
2023-05-22T09:09:42.856Z,44.31
2023-05-22T09:10:42.907Z,53.50
2023-05-22T09:11:42.852Z,49.47
2023-05-22T09:12:42.853Z,52.85
2023-05-22T09:13:42.829Z,50.27
2023-05-22T09:14:42.864Z,46.73
2023-05-22T09:15:42.846Z,47.86
2023-05-22T09:16:42.900Z,49.79
2023-05-22T09:17:42.819Z,52.85
2023-05-22T09:18:42.853Z,45.60
2023-05-22T09:19:42.868Z,58.65
2023-05-22T09:20:43.428Z,47.37
2023-05-22T09:21:43.128Z,49.31
2023-05-22T09:22:42.756Z,44.31
2023-05-22T09:23:42.749Z,50.43
2023-05-22T09:24:42.779Z,52.21
2023-05-22T09:25:42.762Z,49.31
2023-05-22T09:26:42.734Z,47.05
2023-05-22T09:27:42.725Z,52.21
2023-05-22T09:28:42.743Z,46.57
2023-05-22T09:29:42.727Z,50.11
2023-05-22T09:30:42.880Z,44.47
2023-05-22T09:31:42.834Z,48.18
2023-05-22T09:32:42.731Z,43.83
2023-05-22T09:33:42.702Z,52.69
2023-05-22T09:34:42.686Z,50.92
2023-05-22T09:35:42.662Z,49.31
2023-05-22T09:36:42.722Z,49.47
2023-05-22T09:37:42.646Z,44.63
2023-05-22T09:38:42.659Z,45.12
2023-05-22T09:39:42.668Z,51.40
2023-05-22T09:40:42.626Z,53.66
2023-05-22T09:41:42.619Z,53.01
2023-05-22T09:42:42.617Z,46.08
2023-05-22T09:43:42.635Z,48.18
2023-05-22T09:44:42.903Z,45.92
2023-05-22T09:45:42.589Z,52.21
2023-05-22T09:46:42.643Z,52.21
2023-05-22T09:47:42.653Z,52.37
2023-05-22T09:48:42.591Z,44.96
2023-05-22T09:49:42.557Z,46.73
2023-05-22T09:50:42.548Z,54.79
2023-05-22T09:51:42.545Z,45.12
2023-05-22T09:52:42.562Z,49.15
2023-05-22T09:53:42.536Z,46.08
2023-05-22T09:54:42.520Z,42.70
2023-05-22T09:55:42.542Z,49.79
2023-05-22T09:56:42.507Z,49.95
2023-05-22T09:57:42.534Z,54.14
2023-05-22T09:58:42.489Z,43.51
2023-05-22T09:59:42.490Z,47.86
2023-05-22T10:00:42.603Z,45.44
2023-05-22T10:01:42.566Z,49.15
2023-05-22T10:02:42.529Z,50.11
2023-05-22T10:03:42.464Z,50.92
2023-05-22T10:04:42.546Z,46.41
2023-05-22T10:05:42.439Z,46.08
2023-05-22T10:06:42.549Z,51.40
2023-05-22T10:07:42.451Z,50.27
2023-05-22T10:08:42.437Z,48.50
2023-05-22T10:09:42.405Z,49.15
2023-05-22T10:10:42.574Z,50.92
2023-05-22T10:11:42.424Z,46.57
2023-05-22T10:12:42.388Z,45.12
2023-05-22T10:13:42.397Z,48.98
2023-05-22T10:14:42.376Z,42.70
2023-05-22T10:15:42.484Z,49.95
2023-05-22T10:16:42.519Z,49.15
2023-05-22T10:17:42.391Z,47.21
2023-05-22T10:18:42.346Z,47.86
2023-05-22T10:19:44.548Z,49.31
2023-05-22T10:20:43.329Z,49.63
2023-05-22T10:21:42.394Z,42.22
2023-05-22T10:22:42.337Z,48.66
2023-05-22T10:23:42.307Z,51.08
2023-05-22T10:24:42.293Z,45.60
2023-05-22T10:25:42.321Z,52.05
2023-05-22T10:26:42.301Z,51.40
2023-05-22T10:27:42.276Z,47.86
2023-05-22T10:28:42.269Z,49.31
2023-05-22T10:29:42.324Z,45.92
2023-05-22T10:30:42.621Z,48.34
2023-05-22T10:31:42.242Z,45.92
2023-05-22T10:32:42.507Z,42.54
2023-05-22T10:33:42.248Z,48.34
2023-05-22T10:34:42.277Z,48.82
2023-05-22T10:35:42.232Z,47.86
2023-05-22T10:36:42.204Z,51.40
2023-05-22T10:37:42.202Z,56.40
2023-05-22T10:38:42.183Z,50.92
2023-05-22T10:39:42.180Z,46.57
2023-05-22T10:40:42.184Z,51.40
2023-05-22T10:41:43.186Z,43.99
2023-05-22T10:42:42.154Z,48.82
2023-05-22T10:43:42.154Z,50.11
2023-05-22T10:44:42.166Z,51.56
2023-05-22T10:45:43.951Z,51.24
2023-05-22T10:46:42.131Z,47.37
2023-05-22T10:47:42.250Z,52.53
2023-05-22T10:48:42.211Z,44.47
2023-05-22T10:49:42.126Z,49.63
2023-05-22T10:50:42.274Z,48.18
2023-05-22T10:51:42.089Z,47.70
2023-05-22T10:52:42.092Z,52.69
2023-05-22T10:53:42.084Z,45.76
2023-05-22T10:54:42.112Z,52.85
2023-05-22T10:55:42.054Z,42.86
2023-05-22T10:56:42.072Z,42.22
2023-05-22T10:57:42.053Z,51.56
2023-05-22T10:58:42.039Z,50.43
2023-05-22T10:59:42.056Z,51.88
2023-05-22T11:00:42.207Z,49.15
2023-05-22T11:01:42.057Z,46.73
2023-05-22T11:02:42.102Z,48.50
2023-05-22T11:03:42.021Z,43.51
2023-05-22T11:04:42.107Z,43.02
2023-05-22T11:05:41.973Z,40.61
2023-05-22T11:06:42.098Z,46.89
2023-05-22T11:07:41.959Z,48.34
2023-05-22T11:08:41.976Z,44.47
2023-05-22T11:09:42.212Z,44.96
2023-05-22T11:10:41.991Z,48.50
2023-05-22T11:11:41.933Z,46.25
2023-05-22T11:12:41.977Z,46.89
2023-05-22T11:13:41.975Z,48.98
2023-05-22T11:47:40.693Z,40.77
2023-05-22T11:58:07.672Z,52.69
2023-05-22T11:59:07.665Z,48.34
2023-05-22T12:00:07.635Z,47.86
2023-05-22T12:01:07.636Z,50.43
2023-05-22T12:02:08.829Z,47.86
2023-05-22T12:03:08.779Z,47.37
2023-05-22T12:04:08.755Z,48.82
2023-05-22T12:05:08.712Z,53.82
2023-05-22T12:06:08.761Z,48.66
2023-05-22T12:07:08.722Z,45.28
2023-05-22T12:08:40.625Z,54.14
2023-05-22T12:09:08.712Z,53.17
2023-05-22T12:10:08.692Z,47.86
2023-05-22T12:11:08.673Z,48.82
2023-05-22T12:12:08.693Z,52.85
2023-05-22T12:13:08.665Z,48.02
2023-05-22T12:14:08.650Z,46.41
2023-05-22T12:15:08.653Z,50.27
2023-05-22T12:16:08.671Z,50.43
2023-05-22T12:17:08.674Z,51.72
2023-05-22T12:18:08.727Z,52.37
2023-05-22T12:19:08.705Z,53.82
2023-05-22T12:20:08.611Z,52.21
2023-05-22T12:21:08.676Z,52.37
2023-05-22T12:22:08.638Z,47.86
2023-05-22T12:23:08.576Z,50.11
2023-05-22T12:24:08.572Z,50.92
2023-05-22T12:25:08.562Z,43.51
2023-05-22T12:26:08.578Z,50.43
2023-05-22T12:27:08.569Z,49.95
2023-05-22T12:28:08.549Z,48.82
2023-05-22T12:29:08.543Z,45.92
2023-05-22T12:30:08.532Z,50.43
2023-05-22T12:31:08.606Z,52.21
2023-05-22T12:32:08.562Z,54.79
2023-05-22T12:33:08.600Z,48.18
2023-05-22T12:34:08.667Z,47.37
2023-05-22T12:35:08.650Z,51.72
2023-05-22T12:36:08.656Z,52.37
2023-05-22T12:37:08.607Z,50.43
2023-05-22T12:38:08.504Z,51.88
2023-05-22T12:39:08.581Z,51.08
2023-05-22T12:40:08.629Z,53.66
2023-05-22T12:41:08.496Z,47.70
2023-05-22T12:42:08.451Z,42.70
2023-05-22T12:43:08.445Z,47.70
2023-05-22T12:44:08.576Z,45.44
2023-05-22T12:45:08.492Z,50.11
2023-05-22T12:46:09.477Z,45.92
2023-05-22T12:47:08.442Z,50.92
2023-05-22T12:48:08.475Z,47.86
2023-05-22T12:49:09.256Z,48.34
2023-05-22T12:50:08.602Z,41.25
2023-05-22T12:51:08.377Z,47.37
2023-05-22T12:52:08.373Z,48.98
2023-05-22T12:53:08.381Z,47.21
2023-05-22T12:54:08.348Z,47.21
2023-05-22T12:55:08.560Z,47.37
2023-05-22T12:56:08.350Z,48.34
2023-05-22T12:57:08.338Z,47.05
2023-05-22T12:58:08.331Z,50.27
2023-05-22T12:59:08.558Z,51.40
2023-05-22T13:00:08.581Z,51.40
2023-05-22T13:01:08.334Z,48.02
2023-05-22T13:02:08.319Z,49.31
2023-05-22T13:03:08.350Z,48.98
2023-05-22T13:04:08.307Z,47.05
2023-05-22T13:05:08.340Z,50.76
2023-05-22T13:06:08.352Z,48.82
2023-05-22T13:07:08.256Z,47.21
2023-05-22T13:08:08.271Z,50.92
2023-05-22T13:09:08.269Z,45.28
2023-05-22T13:10:08.237Z,46.73
2023-05-22T13:11:08.224Z,49.79
2023-05-22T13:12:08.258Z,48.34
2023-05-22T13:13:08.233Z,43.34
2023-05-22T13:14:08.233Z,45.12
2023-05-22T13:15:08.223Z,48.34
2023-05-22T13:16:08.208Z,48.82
2023-05-22T13:17:08.238Z,43.02
2023-05-22T13:18:08.642Z,44.96
2023-05-22T13:19:08.193Z,45.12
2023-05-22T13:20:08.176Z,51.08
2023-05-22T13:21:08.162Z,49.31
2023-05-22T13:22:08.231Z,49.31
2023-05-22T13:23:08.172Z,44.79
2023-05-22T13:24:08.140Z,48.66
2023-05-22T13:25:08.151Z,48.34
2023-05-22T13:26:08.126Z,46.57
2023-05-22T13:27:08.154Z,47.70
2023-05-22T13:28:08.132Z,45.12
2023-05-22T13:29:08.111Z,49.31
2023-05-22T13:30:08.161Z,41.41
2023-05-22T13:31:08.102Z,46.08
2023-05-22T13:32:08.118Z,44.31
2023-05-22T13:33:08.124Z,49.31
2023-05-22T13:34:08.151Z,48.02
2023-05-22T13:35:08.060Z,47.70
2023-05-22T13:36:08.049Z,45.12
2023-05-22T13:37:08.078Z,45.76
2023-05-22T13:38:08.125Z,48.82
2023-05-22T13:39:08.040Z,51.88
2023-05-22T13:40:08.033Z,46.73
2023-05-22T13:41:08.047Z,48.98
2023-05-22T13:42:08.035Z,48.18
2023-05-22T13:43:08.008Z,46.73
2023-05-22T13:44:08.001Z,44.63
2023-05-22T13:45:07.996Z,50.92
2023-05-22T13:46:08.003Z,48.66
2023-05-22T13:47:08.006Z,45.92
2023-05-22T13:48:07.971Z,46.89
2023-05-22T13:49:07.967Z,43.99
2023-05-22T13:50:07.959Z,47.21
2023-05-22T13:51:07.995Z,43.02
2023-05-22T13:52:07.939Z,48.98
2023-05-22T13:53:07.936Z,40.93
2023-05-22T13:54:08.030Z,42.06
2023-05-22T13:55:07.948Z,42.22
2023-05-22T13:56:07.939Z,48.82
2023-05-22T13:57:07.898Z,47.21
2023-05-22T13:58:07.902Z,49.79
2023-05-22T13:59:09.317Z,45.60
2023-05-22T14:00:08.931Z,45.76
2023-05-22T14:01:07.928Z,47.53
2023-05-22T14:02:07.887Z,48.02
2023-05-22T14:03:07.915Z,44.15
2023-05-22T14:04:07.857Z,47.70
2023-05-22T14:05:07.885Z,46.57
2023-05-22T14:06:07.840Z,47.86
2023-05-22T14:07:07.819Z,49.95
2023-05-22T14:08:07.818Z,46.25
2023-05-22T14:09:07.878Z,42.70
2023-05-22T14:10:08.008Z,47.37
2023-05-22T14:11:07.834Z,49.63
2023-05-22T14:12:07.846Z,46.73
2023-05-22T14:13:07.856Z,50.43
2023-05-22T14:14:07.813Z,47.86
2023-05-22T14:15:07.769Z,51.40
2023-05-22T14:16:07.758Z,42.70
2023-05-22T14:17:07.999Z,50.43
2023-05-22T14:18:07.877Z,52.53
2023-05-22T14:19:07.866Z,43.83
2023-05-22T14:20:07.752Z,45.92
2023-05-22T14:21:07.719Z,44.63
2023-05-22T14:22:07.714Z,48.02
2023-05-22T14:23:07.748Z,44.63
2023-05-22T14:24:07.703Z,39.48
2023-05-22T14:25:07.689Z,51.08
2023-05-22T14:26:07.852Z,47.21
2023-05-22T14:27:07.697Z,49.95
2023-05-22T14:28:07.698Z,43.67
2023-05-22T14:29:07.661Z,45.60
2023-05-22T14:30:07.722Z,45.60
2023-05-22T14:31:07.737Z,41.25
2023-05-22T14:32:07.669Z,41.89
2023-05-22T14:33:07.734Z,45.12
2023-05-22T14:34:07.648Z,49.63
2023-05-22T14:35:07.647Z,47.86
2023-05-22T14:36:07.634Z,44.63
2023-05-22T14:37:07.644Z,46.89
2023-05-22T14:38:07.589Z,46.25
2023-05-22T14:39:07.583Z,47.21
2023-05-22T14:40:07.687Z,47.86
2023-05-22T14:41:07.574Z,46.89
2023-05-22T14:42:07.660Z,46.89
2023-05-22T14:43:07.578Z,38.99
2023-05-22T14:44:07.556Z,43.99
2023-05-22T14:45:07.569Z,50.76
2023-05-22T14:46:07.585Z,47.70
2023-05-22T14:47:07.557Z,52.85
2023-05-22T14:48:09.535Z,49.31
2023-05-22T14:49:07.552Z,49.79
2023-05-22T14:50:19.152Z,50.11
2023-05-22T14:51:09.535Z,51.08
2023-05-22T14:52:07.496Z,50.92
2023-05-22T14:53:07.496Z,49.79
2023-05-22T14:54:07.502Z,44.47
2023-05-22T14:55:08.469Z,48.34
2023-05-22T14:56:07.499Z,48.02
2023-05-22T14:57:07.467Z,52.21
2023-05-22T14:58:07.545Z,50.92
2023-05-22T14:59:07.464Z,45.60
2023-05-22T15:00:07.508Z,49.63
2023-05-22T15:01:07.473Z,48.02
2023-05-22T15:02:07.490Z,50.92
2023-05-22T15:03:07.481Z,46.41
2023-05-22T15:04:07.424Z,46.08